< < Back
Terminal Aerodrome Forecast


Current Version              Previous Versions:   1  2  3  4  5  6  7  8  9  

Terminal Aerodrome Forecast

290
FTUS42 KGSP 272134 AAA
TAFCLT
TAF AMD
KCLT 272134Z 2722/2818 34008KT P6SM FEW070 SCT250
     FM280000 36004KT P6SM FEW060 BKN250
     FM281200 01008KT P6SM FEW060 BKN250=



Latest METAR

892
SAUS70 KWBC 280400 RRE
MTRCLT
METAR KCLT 280352Z 05006KT 10SM SCT070 13/M01 A2994 RMK AO2 SLP134
T01281011


USA.gov is the U.S. government's official web portal to all federal, state and local government web resources and services.